Time;durP1;ratioP1;P1;durP2;ratioP2;P2;SDS_P1;SDS_P2;PMS_P1;PMS_P2;Temp;Humidity;BMP_temperature;BMP_pressure;BME280_temperature;BME280_humidity;BME280_pressure;Samples;Min_cycle;Max_cycle;Signal;HPM_P1;HPM_P2
2024/04/01 00:00:41;;;;;;;9.37;2.90;;;10.30;99.90;;;;;;2023177;29;20285;-71
2024/04/01 00:01:41;;;;;;;4.70;2.43;;;10.30;99.90;;;;;;2030529;29;20232;-71
2024/04/01 00:02:42;;;;;;;9.23;3.23;;;10.20;99.90;;;;;;2031260;29;20314;-71
2024/04/01 00:03:43;;;;;;;6.87;2.77;;;10.20;99.90;;;;;;2022901;29;20283;-71
2024/04/01 00:04:43;;;;;;;7.07;2.60;;;10.20;99.90;;;;;;2023859;29;20265;-71
2024/04/01 00:05:53;;;;;;;9.27;2.63;;;10.30;99.90;;;;;;2030649;29;20232;-71
2024/04/01 00:06:54;;;;;;;7.20;2.90;;;10.40;99.90;;;;;;2029148;29;20228;-71
2024/04/01 00:07:56;;;;;;;9.20;2.53;;;10.40;99.90;;;;;;2030124;29;20698;-71
2024/04/01 00:08:57;;;;;;;7.18;2.60;;;10.40;99.90;;;;;;2030432;29;20224;-71
2024/04/01 00:09:57;;;;;;;9.43;2.70;;;10.50;99.90;;;;;;2022742;29;20265;-71
2024/04/01 00:10:58;;;;;;;8.17;2.77;;;10.50;99.90;;;;;;2022491;29;20261;-71
2024/04/01 00:11:59;;;;;;;9.80;2.80;;;10.50;99.90;;;;;;2031240;29;20315;-71
2024/04/01 00:12:59;;;;;;;9.53;2.77;;;10.40;99.90;;;;;;2023217;29;20316;-70
2024/04/01 00:14:00;;;;;;;8.40;3.23;;;10.40;99.90;;;;;;2023848;29;20519;-71
2024/04/01 00:15:01;;;;;;;6.60;2.57;;;10.40;99.90;;;;;;2031013;29;20303;-71
2024/04/01 00:16:02;;;;;;;8.00;2.53;;;10.50;99.90;;;;;;2030499;29;20259;-71
2024/04/01 00:17:03;;;;;;;9.80;2.90;;;10.50;99.90;;;;;;2022477;29;20194;-70
2024/04/01 00:18:04;;;;;;;7.83;2.80;;;10.50;99.90;;;;;;2015009;29;20281;-70
2024/04/01 00:19:07;;;;;;;10.77;2.67;;;10.60;99.90;;;;;;2022678;29;20201;-71
2024/04/01 00:20:08;;;;;;;10.48;2.83;;;10.70;99.90;;;;;;2022608;29;20186;-71
2024/04/01 00:21:09;;;;;;;5.50;2.20;;;10.80;99.90;;;;;;2023040;29;20186;-71
2024/04/01 00:22:09;;;;;;;9.80;2.80;;;10.80;99.90;;;;;;2026266;29;20178;-71
2024/04/01 00:23:10;;;;;;;5.70;2.30;;;10.70;99.90;;;;;;2027501;29;20269;-71
2024/04/01 00:24:10;;;;;;;8.20;2.63;;;10.70;99.90;;;;;;2039553;29;20216;-72
2024/04/01 00:25:11;;;;;;;7.20;2.90;;;10.70;99.90;;;;;;2030271;29;20197;-72
2024/04/01 00:26:12;;;;;;;9.17;2.90;;;10.70;99.90;;;;;;2023719;29;20194;-71
2024/04/01 00:27:13;;;;;;;6.60;2.20;;;10.70;99.90;;;;;;2022946;29;20190;-71
2024/04/01 00:28:13;;;;;;;9.77;2.33;;;10.70;99.90;;;;;;2015156;29;20286;-71
2024/04/01 00:29:14;;;;;;;6.67;2.27;;;10.70;99.90;;;;;;2030514;29;20200;-71
2024/04/01 00:30:15;;;;;;;8.83;2.90;;;10.70;99.90;;;;;;2034320;29;20184;-71
2024/04/01 00:31:15;;;;;;;7.43;2.43;;;10.60;99.90;;;;;;2026886;29;20283;-71
2024/04/01 00:32:16;;;;;;;7.63;2.63;;;10.50;99.90;;;;;;2030149;29;20192;-71
2024/04/01 00:33:17;;;;;;;10.83;2.53;;;10.50;99.90;;;;;;2030098;29;20197;-71
2024/04/01 00:34:17;;;;;;;7.30;2.37;;;10.50;99.90;;;;;;2018877;29;20205;-72
2024/04/01 00:35:18;;;;;;;6.80;2.47;;;10.50;99.90;;;;;;2014957;29;20189;-70
2024/04/01 00:36:19;;;;;;;4.00;2.17;;;10.50;99.90;;;;;;2022875;29;20189;-71
2024/04/01 00:37:19;;;;;;;8.33;2.33;;;10.50;99.90;;;;;;2022442;29;20189;-71
2024/04/01 00:38:20;;;;;;;6.03;2.40;;;10.40;99.90;;;;;;2016056;29;20190;-70
2024/04/01 00:39:20;;;;;;;5.90;2.30;;;10.30;99.90;;;;;;2030450;29;20248;-71
2024/04/01 00:40:22;;;;;;;10.13;3.00;;;10.30;99.90;;;;;;2034679;29;20988;-71
2024/04/01 00:41:24;;;;;;;7.22;2.38;;;10.20;99.90;;;;;;2034241;29;20312;-71
2024/04/01 00:42:24;;;;;;;8.57;2.20;;;10.20;99.90;;;;;;2037743;29;20291;-70
2024/04/01 00:43:25;;;;;;;5.33;2.40;;;10.10;99.90;;;;;;2015196;29;20313;-71
2024/04/01 00:44:26;;;;;;;6.10;2.30;;;10.00;99.90;;;;;;2014905;29;20238;-70
2024/04/01 00:45:27;;;;;;;7.13;2.50;;;9.90;99.90;;;;;;2030399;29;20319;-71
2024/04/01 00:46:27;;;;;;;8.13;2.67;;;9.90;99.90;;;;;;2039246;29;20290;-71
2024/04/01 00:47:29;;;;;;;5.50;2.10;;;9.80;99.90;;;;;;2029311;29;20307;-71
2024/04/01 00:48:29;;;;;;;8.63;2.13;;;9.90;99.90;;;;;;2021127;29;20233;-72
2024/04/01 00:49:31;;;;;;;7.43;2.67;;;10.00;99.90;;;;;;2031100;29;20317;-71
2024/04/01 00:50:32;;;;;;;7.72;2.13;;;9.90;99.90;;;;;;2031020;29;20678;-71
2024/04/01 00:51:33;;;;;;;4.93;1.90;;;10.00;99.90;;;;;;2029972;29;20237;-71
2024/04/01 00:52:34;;;;;;;8.38;2.40;;;10.10;99.90;;;;;;2027633;29;20479;-70
2024/04/01 00:53:35;;;;;;;8.47;2.60;;;10.10;99.90;;;;;;2025649;29;20644;-71
2024/04/01 00:54:36;;;;;;;13.37;2.63;;;10.10;99.90;;;;;;2022101;29;20237;-71
2024/04/01 00:55:42;;;;;;;7.23;2.23;;;10.10;99.90;;;;;;2022217;29;20362;-71
2024/04/01 00:56:47;;;;;;;6.65;2.17;;;10.20;99.90;;;;;;2022747;29;20237;-71
2024/04/01 00:57:48;;;;;;;6.93;2.00;;;10.10;99.90;;;;;;2016134;29;20230;-71
2024/04/01 00:58:52;;;;;;;8.32;2.20;;;10.20;99.90;;;;;;2022147;29;20229;-71
2024/04/01 00:59:54;;;;;;;11.50;2.85;;;10.20;99.90;;;;;;2029977;29;20220;-71
2024/04/01 01:00:56;;;;;;;8.07;2.33;;;10.20;99.90;;;;;;2030730;29;20221;-70
2024/04/01 01:01:57;;;;;;;6.63;2.08;;;10.20;99.90;;;;;;2024552;29;20240;-71
2024/04/01 01:02:59;;;;;;;8.63;2.37;;;10.20;99.90;;;;;;2029978;29;20797;-72
2024/04/01 01:04:03;;;;;;;9.90;2.13;;;10.30;99.90;;;;;;2029509;29;20636;-71
2024/04/01 01:05:04;;;;;;;6.80;2.15;;;10.40;99.90;;;;;;2012904;29;20281;-71
2024/04/01 01:06:08;;;;;;;6.43;2.00;;;10.40;99.90;;;;;;2021719;29;20213;-71
2024/04/01 01:07:09;;;;;;;5.82;1.85;;;10.50;99.90;;;;;;2021597;29;20190;-71
2024/04/01 01:08:11;;;;;;;6.20;2.50;;;10.40;99.90;;;;;;2020829;29;20540;-71
2024/04/01 01:09:12;;;;;;;5.88;2.42;;;10.40;99.90;;;;;;2037208;29;20251;-71
2024/04/01 01:10:13;;;;;;;7.32;2.70;;;10.30;99.90;;;;;;2036654;29;20196;-71
2024/04/01 01:11:14;;;;;;;8.97;2.50;;;10.30;99.90;;;;;;2029033;29;20197;-71
2024/04/01 01:12:15;;;;;;;8.13;2.40;;;10.20;99.90;;;;;;2028956;29;20189;-71
2024/04/01 01:13:16;;;;;;;4.63;1.80;;;10.20;99.90;;;;;;2029060;29;20201;-71
2024/04/01 01:14:17;;;;;;;6.40;2.13;;;10.20;99.90;;;;;;2028772;29;20209;-71
2024/04/01 01:15:18;;;;;;;6.63;1.70;;;10.20;99.90;;;;;;2029210;29;20267;-71
2024/04/01 01:16:19;;;;;;;5.30;1.87;;;10.20;99.90;;;;;;2029274;29;20463;-70
2024/04/01 01:17:19;;;;;;;7.50;1.97;;;10.10;99.90;;;;;;2021250;29;20670;-71
2024/04/01 01:18:20;;;;;;;6.40;2.40;;;10.00;99.90;;;;;;2013130;29;20274;-71
2024/04/01 01:19:21;;;;;;;6.17;1.93;;;10.00;99.90;;;;;;2022901;29;20233;-71
2024/04/01 01:20:22;;;;;;;8.75;2.13;;;10.10;99.90;;;;;;2021140;29;20233;-71
2024/04/01 01:21:23;;;;;;;8.00;2.40;;;10.10;99.90;;;;;;2020916;29;20253;-71
2024/04/01 01:22:36;;;;;;;5.07;1.70;;;9.90;99.90;;;;;;2021724;29;20316;-72
2024/04/01 01:23:37;;;;;;;4.75;1.90;;;9.80;99.90;;;;;;2030073;29;20248;-70
2024/04/01 01:24:38;;;;;;;4.13;1.73;;;9.90;99.90;;;;;;2028769;29;20259;-71
2024/04/01 01:25:38;;;;;;;9.03;2.10;;;10.00;99.90;;;;;;2022179;29;20260;-71
2024/04/01 01:26:39;;;;;;;7.33;1.80;;;10.00;99.90;;;;;;2037252;29;20276;-71
2024/04/01 01:27:41;;;;;;;11.52;2.50;;;9.80;99.90;;;;;;2042159;29;20236;-71
2024/04/01 01:28:42;;;;;;;7.13;2.08;;;9.80;99.90;;;;;;2027209;29;20268;-72
2024/04/01 01:29:43;;;;;;;5.97;2.10;;;9.80;99.90;;;;;;2026685;29;20288;-71
2024/04/01 01:30:44;;;;;;;3.43;1.70;;;9.80;99.90;;;;;;2022871;29;20771;-71
2024/04/01 01:31:44;;;;;;;9.03;2.33;;;9.80;99.90;;;;;;2019131;29;20233;-71
2024/04/01 01:32:49;;;;;;;7.47;1.90;;;9.80;99.90;;;;;;2025277;29;20233;-71
2024/04/01 01:33:49;;;;;;;4.32;1.60;;;9.80;99.90;;;;;;2034727;29;20235;-71
2024/04/01 01:34:53;;;;;;;4.23;2.03;;;9.90;99.90;;;;;;2029419;29;20233;-72
2024/04/01 01:35:54;;;;;;;4.90;1.67;;;9.90;99.90;;;;;;2013600;29;20238;-71
2024/04/01 01:36:55;;;;;;;6.35;1.73;;;9.90;99.90;;;;;;2022191;29;20242;-71
2024/04/01 01:37:57;;;;;;;4.00;1.77;;;9.90;99.90;;;;;;2022654;29;20221;-71
2024/04/01 01:38:57;;;;;;;7.45;2.08;;;9.90;99.90;;;;;;2022118;29;20261;-71
2024/04/01 01:39:58;;;;;;;5.83;1.60;;;9.90;99.90;;;;;;2021664;29;20321;-71
2024/04/01 01:40:59;;;;;;;3.83;1.60;;;9.90;99.90;;;;;;2038375;29;20298;-71
2024/04/01 01:41:59;;;;;;;8.43;1.80;;;10.00;99.90;;;;;;2030584;29;20561;-71
2024/04/01 01:43:00;;;;;;;5.87;1.80;;;10.00;99.90;;;;;;2029684;29;20225;-72
2024/04/01 01:44:01;;;;;;;8.60;2.27;;;10.00;99.90;;;;;;2029830;29;20264;-70
2024/04/01 01:45:03;;;;;;;5.67;1.93;;;10.10;99.90;;;;;;2021048;29;20225;-71
2024/04/01 01:46:04;;;;;;;4.35;1.60;;;10.10;99.90;;;;;;2028793;29;20273;-71
2024/04/01 01:47:05;;;;;;;6.70;2.00;;;10.10;99.90;;;;;;2022677;29;20280;-71
2024/04/01 01:48:06;;;;;;;4.67;2.03;;;10.10;99.90;;;;;;2014770;29;20306;-71
2024/04/01 01:49:06;;;;;;;6.65;1.70;;;10.10;99.90;;;;;;2014372;29;20240;-71
2024/04/01 01:50:08;;;;;;;7.20;1.57;;;10.20;99.90;;;;;;2014255;29;20650;-70
2024/04/01 01:51:08;;;;;;;6.75;2.00;;;10.20;99.90;;;;;;2030590;29;20656;-71
2024/04/01 01:52:09;;;;;;;3.73;1.77;;;10.00;99.90;;;;;;2037002;29;20192;-71
2024/04/01 01:53:10;;;;;;;4.70;1.60;;;10.00;99.90;;;;;;2029664;29;20185;-71
2024/04/01 01:54:10;;;;;;;4.30;2.00;;;9.80;99.90;;;;;;2021316;29;20237;-71
2024/04/01 01:55:11;;;;;;;7.37;2.17;;;9.80;99.90;;;;;;2021935;29;20186;-70
2024/04/01 01:56:12;;;;;;;6.30;1.90;;;9.80;99.90;;;;;;2028394;29;20357;-71
2024/04/01 01:57:12;;;;;;;5.83;2.03;;;9.90;99.90;;;;;;2036729;29;20184;-71
2024/04/01 01:58:13;;;;;;;4.80;1.80;;;9.80;99.90;;;;;;2028409;29;20190;-72
2024/04/01 01:59:14;;;;;;;6.30;2.07;;;9.70;99.90;;;;;;2021299;29;20186;-71
2024/04/01 02:00:15;;;;;;;3.97;1.30;;;9.80;99.90;;;;;;2021020;29;20191;-71
2024/04/01 02:01:16;;;;;;;3.15;1.50;;;9.90;99.90;;;;;;2030345;29;20196;-71
2024/04/01 02:02:17;;;;;;;7.43;1.80;;;9.90;99.90;;;;;;2028655;29;20297;-71
2024/04/01 02:03:18;;;;;;;7.97;1.75;;;10.00;99.90;;;;;;2020336;29;20222;-71
2024/04/01 02:04:18;;;;;;;5.10;1.40;;;10.00;99.90;;;;;;2021781;29;20212;-71
2024/04/01 02:05:19;;;;;;;5.77;2.00;;;10.00;99.90;;;;;;2021923;29;20280;-71
2024/04/01 02:06:20;;;;;;;5.10;1.90;;;10.00;99.90;;;;;;2030704;29;20193;-71
2024/04/01 02:07:20;;;;;;;7.97;1.90;;;10.00;99.90;;;;;;2029583;29;20233;-71
2024/04/01 02:08:21;;;;;;;8.27;2.00;;;10.00;99.90;;;;;;2020927;29;20241;-71
2024/04/01 02:09:22;;;;;;;3.63;1.70;;;10.00;99.90;;;;;;2012920;29;20669;-71
2024/04/01 02:10:23;;;;;;;4.40;1.93;;;10.00;99.90;;;;;;2028653;29;20247;-71
2024/04/01 02:11:24;;;;;;;5.73;1.83;;;10.00;99.90;;;;;;2028484;29;20259;-70
2024/04/01 02:12:24;;;;;;;6.10;1.60;;;9.90;99.90;;;;;;2016115;29;20607;-71
2024/04/01 02:13:25;;;;;;;6.10;1.90;;;9.80;99.90;;;;;;2021440;29;20852;-71
2024/04/01 02:14:26;;;;;;;11.33;2.10;;;9.80;99.90;;;;;;2012558;29;20278;-70
2024/04/01 02:15:27;;;;;;;3.05;1.52;;;9.80;99.90;;;;;;2018647;29;20239;-71
2024/04/01 02:16:28;;;;;;;5.17;1.60;;;9.80;99.90;;;;;;2031184;29;20310;-70
2024/04/01 02:17:28;;;;;;;8.17;2.03;;;9.80;99.90;;;;;;2035763;29;20238;-71
2024/04/01 02:18:29;;;;;;;6.77;2.00;;;9.80;99.90;;;;;;2038226;29;20240;-71
2024/04/01 02:19:31;;;;;;;6.93;1.97;;;9.80;99.90;;;;;;2029083;29;20678;-70
2024/04/01 02:20:34;;;;;;;4.68;1.80;;;9.70;99.90;;;;;;2011246;29;20818;-70
2024/04/01 02:21:35;;;;;;;3.65;1.75;;;9.70;99.90;;;;;;2018407;29;20232;-71
2024/04/01 02:22:36;;;;;;;5.57;2.03;;;9.80;99.90;;;;;;2024330;29;20232;-71
2024/04/01 02:23:37;;;;;;;6.53;2.00;;;9.80;99.90;;;;;;2012984;29;20242;-71
2024/04/01 02:24:41;;;;;;;6.13;1.50;;;9.80;99.90;;;;;;2019640;29;20473;-71
2024/04/01 02:25:41;;;;;;;5.28;1.52;;;9.80;99.90;;;;;;2020000;29;20245;-70
2024/04/01 02:26:42;;;;;;;6.27;2.07;;;9.70;99.90;;;;;;2027432;29;20240;-71
2024/04/01 02:27:44;;;;;;;2.83;1.40;;;9.60;99.90;;;;;;2028808;29;20701;-71
2024/04/01 02:28:45;;;;;;;3.38;1.65;;;9.60;99.90;;;;;;2022565;29;20649;-71
2024/04/01 02:29:45;;;;;;;3.83;1.70;;;9.60;99.90;;;;;;2028805;29;20311;-71
2024/04/01 02:30:46;;;;;;;5.43;2.10;;;9.70;99.90;;;;;;2029555;29;20244;-70
2024/04/01 02:31:48;;;;;;;3.57;1.63;;;9.60;99.90;;;;;;2034942;29;20260;-71
2024/04/01 02:32:49;;;;;;;7.53;1.98;;;9.70;99.90;;;;;;2035535;29;20639;-71
2024/04/01 02:33:49;;;;;;;6.07;1.63;;;9.70;99.90;;;;;;2036186;29;20283;-71
2024/04/01 02:34:50;;;;;;;6.73;1.73;;;9.70;99.90;;;;;;2028501;29;20581;-71
2024/04/01 02:35:50;;;;;;;6.43;1.93;;;9.80;99.90;;;;;;2020356;29;20241;-71
2024/04/01 02:36:51;;;;;;;6.47;2.20;;;9.70;99.90;;;;;;2022415;29;20236;-71
2024/04/01 02:37:53;;;;;;;7.93;2.17;;;9.70;99.90;;;;;;2030997;29;20280;-71
2024/04/01 02:38:53;;;;;;;4.65;1.75;;;9.60;99.90;;;;;;2025464;29;20299;-71
2024/04/01 02:39:54;;;;;;;7.73;2.10;;;9.60;99.90;;;;;;2023806;29;20596;-71
2024/04/01 02:40:55;;;;;;;5.10;1.60;;;9.60;99.90;;;;;;2029595;29;20228;-71
2024/04/01 02:41:57;;;;;;;6.83;1.93;;;9.60;99.90;;;;;;2030511;29;20237;-71
2024/04/01 02:42:57;;;;;;;8.23;2.00;;;9.60;99.90;;;;;;2031591;29;20239;-71
2024/04/01 02:43:58;;;;;;;4.23;1.90;;;9.50;99.90;;;;;;2022301;29;20256;-70
2024/04/01 02:44:59;;;;;;;5.67;2.03;;;9.50;99.90;;;;;;2023103;29;20265;-71
2024/04/01 02:45:59;;;;;;;9.00;1.97;;;9.60;99.90;;;;;;2022798;29;20241;-71
2024/04/01 02:47:00;;;;;;;4.73;1.63;;;9.60;99.90;;;;;;2035584;29;20695;-71
2024/04/01 02:48:01;;;;;;;7.20;2.00;;;9.60;99.90;;;;;;2029229;29;20245;-71
2024/04/01 02:49:01;;;;;;;6.77;1.53;;;9.60;99.90;;;;;;2023451;29;20186;-71
2024/04/01 02:50:02;;;;;;;6.07;1.77;;;9.60;99.90;;;;;;2015698;29;20226;-70
2024/04/01 02:51:03;;;;;;;5.40;1.70;;;9.60;99.90;;;;;;2015212;29;20214;-70
2024/04/01 02:52:04;;;;;;;5.13;1.40;;;9.60;99.90;;;;;;2037362;29;20224;-70
2024/04/01 02:53:05;;;;;;;7.05;1.60;;;9.70;99.90;;;;;;2031260;29;20244;-70
2024/04/01 02:54:06;;;;;;;4.00;1.77;;;9.70;99.90;;;;;;2030383;29;20862;-71
2024/04/01 02:55:09;;;;;;;3.92;1.48;;;9.70;99.90;;;;;;2029660;29;20181;-71
2024/04/01 02:56:10;;;;;;;4.40;1.70;;;9.70;99.90;;;;;;2022591;29;20645;-70
2024/04/01 02:57:11;;;;;;;5.13;1.70;;;9.80;99.90;;;;;;2031285;29;20198;-71
2024/04/01 02:58:11;;;;;;;4.43;1.60;;;9.80;99.90;;;;;;2023300;29;20678;-71
2024/04/01 02:59:12;;;;;;;7.40;1.67;;;9.80;99.90;;;;;;2022382;29;20708;-71
2024/04/01 03:00:16;;;;;;;4.17;1.60;;;9.80;99.90;;;;;;2037193;29;20219;-71
2024/04/01 03:01:16;;;;;;;8.10;1.90;;;9.80;99.90;;;;;;2037069;29;20195;-71
2024/04/01 03:02:17;;;;;;;6.20;1.87;;;9.60;99.90;;;;;;2022956;29;20181;-71
2024/04/01 03:03:18;;;;;;;6.23;1.93;;;9.60;99.90;;;;;;2015635;29;20206;-71
2024/04/01 03:04:18;;;;;;;4.17;1.30;;;9.60;99.90;;;;;;2023693;29;20213;-71
2024/04/01 03:05:19;;;;;;;2.87;1.27;;;9.60;99.90;;;;;;2029945;29;20193;-71
2024/04/01 03:06:20;;;;;;;6.23;1.73;;;9.70;99.90;;;;;;2031231;29;20185;-71
2024/04/01 03:07:20;;;;;;;5.67;1.70;;;9.60;99.90;;;;;;2030736;29;20296;-71
2024/04/01 03:08:21;;;;;;;4.77;1.70;;;9.60;99.90;;;;;;2022292;29;21022;-71
2024/04/01 03:09:22;;;;;;;5.00;1.63;;;9.70;99.90;;;;;;2016025;29;20298;-71
2024/04/01 03:10:22;;;;;;;2.37;1.30;;;9.70;99.90;;;;;;2029259;29;20241;-70
2024/04/01 03:11:23;;;;;;;6.13;1.97;;;9.70;99.90;;;;;;2038629;29;20247;-71
2024/04/01 03:12:25;;;;;;;4.10;1.50;;;9.80;99.90;;;;;;2023050;29;20238;-71
2024/04/01 03:13:28;;;;;;;4.80;1.95;;;9.70;99.90;;;;;;2021290;29;20257;-71
2024/04/01 03:14:29;;;;;;;4.35;1.65;;;9.70;99.90;;;;;;2026566;29;20741;-71
2024/04/01 03:15:30;;;;;;;4.77;1.37;;;9.60;99.90;;;;;;2022364;29;20233;-71
2024/04/01 03:16:31;;;;;;;3.70;1.40;;;9.60;99.90;;;;;;2029218;29;20748;-71
2024/04/01 03:17:32;;;;;;;6.73;1.73;;;9.60;99.90;;;;;;2030187;29;20233;-71
2024/04/01 03:18:33;;;;;;;4.27;1.63;;;9.60;99.90;;;;;;2022504;29;20233;-71
2024/04/01 03:19:34;;;;;;;9.87;2.17;;;9.60;99.90;;;;;;2021833;29;20718;-70
2024/04/01 03:20:35;;;;;;;6.25;1.75;;;9.60;99.90;;;;;;2030156;29;20296;-71
2024/04/01 03:21:35;;;;;;;6.87;1.67;;;9.70;99.90;;;;;;2033766;29;20693;-70
2024/04/01 03:22:36;;;;;;;3.23;1.33;;;9.70;99.90;;;;;;2027930;29;20296;-71
2024/04/01 03:23:37;;;;;;;2.50;1.20;;;9.70;99.90;;;;;;2030587;29;20709;-71
2024/04/01 03:24:37;;;;;;;4.47;1.60;;;9.70;99.90;;;;;;2022439;29;20322;-70
2024/04/01 03:25:38;;;;;;;6.60;1.53;;;9.70;99.90;;;;;;2021767;29;20261;-71
2024/04/01 03:26:39;;;;;;;2.77;1.47;;;9.70;99.90;;;;;;2022297;29;20420;-70
2024/04/01 03:27:39;;;;;;;5.00;1.57;;;9.70;99.90;;;;;;2023491;29;20245;-71
2024/04/01 03:28:40;;;;;;;5.40;1.67;;;9.70;99.90;;;;;;2033728;29;20960;-71
2024/04/01 03:29:41;;;;;;;4.37;1.70;;;9.80;99.90;;;;;;2025129;29;20323;-70
2024/04/01 03:30:41;;;;;;;3.13;1.50;;;9.80;99.90;;;;;;2014682;29;20269;-71
2024/04/01 03:31:42;;;;;;;4.80;1.63;;;9.80;99.90;;;;;;2029759;29;20760;-71
2024/04/01 03:32:43;;;;;;;3.80;1.57;;;9.90;99.90;;;;;;2037906;29;20235;-70
2024/04/01 03:33:44;;;;;;;7.37;1.60;;;9.90;99.90;;;;;;2029925;29;20233;-71
2024/04/01 03:34:49;;;;;;;4.00;1.40;;;9.90;99.90;;;;;;2038653;29;20620;-70
2024/04/01 03:35:55;;;;;;;5.25;1.50;;;9.90;99.90;;;;;;2034639;29;20220;-71
2024/04/01 03:36:57;;;;;;;7.38;1.90;;;10.00;99.90;;;;;;2015452;29;20605;-71
2024/04/01 03:37:58;;;;;;;7.03;1.70;;;9.90;99.90;;;;;;2000970;29;20720;-71
2024/04/01 03:38:59;;;;;;;4.10;1.50;;;9.90;99.90;;;;;;2007257;29;20242;-71
2024/04/01 03:40:00;;;;;;;4.60;1.90;;;9.90;99.90;;;;;;2014394;29;20619;-71
2024/04/01 03:41:00;;;;;;;6.63;1.63;;;10.00;99.90;;;;;;2014231;29;20230;-71
2024/04/01 03:42:01;;;;;;;5.50;1.40;;;10.00;99.90;;;;;;2022017;29;20222;-70
2024/04/01 03:43:03;;;;;;;4.70;1.70;;;10.00;99.90;;;;;;2022440;29;20185;-70
2024/04/01 03:44:04;;;;;;;3.45;1.55;;;10.00;99.90;;;;;;2018978;29;20221;-70
2024/04/01 03:45:08;;;;;;;4.17;1.83;;;10.00;99.90;;;;;;2022439;29;20241;-71
2024/04/01 03:46:09;;;;;;;14.63;2.35;;;10.00;99.90;;;;;;2014535;29;20214;-71
2024/04/01 03:47:10;;;;;;;6.10;1.83;;;9.90;99.90;;;;;;2024187;29;20198;-71
2024/04/01 03:48:11;;;;;;;6.15;1.95;;;9.90;99.90;;;;;;2013673;29;20281;-70
2024/04/01 03:49:12;;;;;;;6.57;2.10;;;9.90;99.90;;;;;;2007002;29;20687;-71
2024/04/01 03:50:12;;;;;;;5.40;2.00;;;9.90;99.90;;;;;;2021415;29;20189;-71
2024/04/01 03:51:14;;;;;;;6.33;1.90;;;10.00;99.90;;;;;;2022860;29;20276;-70
2024/04/01 03:52:15;;;;;;;8.95;2.60;;;9.90;99.90;;;;;;2015977;29;20230;-70
2024/04/01 03:53:16;;;;;;;7.60;2.72;;;9.90;99.90;;;;;;2021945;29;20194;-71
2024/04/01 03:54:17;;;;;;;7.70;2.57;;;9.90;99.90;;;;;;2029551;29;20205;-71
2024/04/01 03:55:18;;;;;;;6.03;2.07;;;9.90;99.90;;;;;;2029373;29;20189;-71
2024/04/01 03:56:18;;;;;;;6.72;2.00;;;9.90;99.90;;;;;;2022137;29;20185;-71
2024/04/01 03:57:19;;;;;;;8.97;2.37;;;9.90;99.90;;;;;;2022114;29;20660;-71
2024/04/01 03:58:20;;;;;;;4.43;2.50;;;9.90;99.90;;;;;;2020957;29;20193;-71
2024/04/01 03:59:20;;;;;;;6.73;2.13;;;9.80;99.90;;;;;;2014763;29;20233;-71
2024/04/01 04:00:21;;;;;;;5.67;2.60;;;9.80;99.90;;;;;;2017642;29;20248;-71
2024/04/01 04:01:22;;;;;;;7.27;2.43;;;9.70;99.90;;;;;;2022020;29;20238;-72
2024/04/01 04:02:23;;;;;;;4.72;2.45;;;9.80;99.90;;;;;;2014256;29;20341;-71
2024/04/01 04:03:25;;;;;;;6.10;2.70;;;9.80;99.90;;;;;;2013456;29;20846;-71
2024/04/01 04:04:25;;;;;;;3.53;2.42;;;9.80;99.90;;;;;;2021903;29;20789;-70
2024/04/01 04:05:26;;;;;;;5.90;2.37;;;9.80;99.90;;;;;;2022240;29;20313;-71
2024/04/01 04:06:27;;;;;;;6.23;2.67;;;9.80;99.90;;;;;;2022199;29;20320;-71
2024/04/01 04:07:27;;;;;;;7.87;2.77;;;9.80;99.90;;;;;;2029418;29;20228;-70
2024/04/01 04:08:28;;;;;;;6.47;3.43;;;9.70;99.90;;;;;;2021975;29;20229;-71
2024/04/01 04:09:29;;;;;;;6.17;2.87;;;9.70;99.90;;;;;;2014135;29;20251;-71
2024/04/01 04:10:31;;;;;;;6.33;2.60;;;9.60;99.90;;;;;;2022116;29;20320;-71
2024/04/01 04:11:33;;;;;;;5.70;2.63;;;9.50;99.90;;;;;;2029231;29;20288;-71
2024/04/01 04:12:34;;;;;;;7.80;2.08;;;9.60;99.90;;;;;;2021906;29;20268;-71
2024/04/01 04:13:35;;;;;;;4.30;2.40;;;9.50;99.90;;;;;;2015213;29;20641;-71
2024/04/01 04:14:35;;;;;;;7.87;2.70;;;9.40;99.90;;;;;;2021806;29;20237;-71
2024/04/01 04:15:36;;;;;;;8.27;2.70;;;9.40;99.90;;;;;;2021906;29;20237;-71
2024/04/01 04:16:37;;;;;;;6.10;2.77;;;9.50;99.90;;;;;;2020868;29;20233;-71
2024/04/01 04:17:37;;;;;;;6.60;2.33;;;9.40;99.90;;;;;;2021619;29;20229;-70
2024/04/01 04:18:38;;;;;;;8.83;3.03;;;9.40;99.90;;;;;;2022124;29;20230;-70
2024/04/01 04:19:39;;;;;;;3.93;2.50;;;9.40;99.90;;;;;;2038685;29;20232;-71
2024/04/01 04:20:39;;;;;;;5.63;3.30;;;9.30;99.90;;;;;;2037762;29;20239;-71
2024/04/01 04:21:41;;;;;;;6.00;3.57;;;9.30;99.90;;;;;;2027374;29;20233;-71
2024/04/01 04:22:44;;;;;;;4.55;2.47;;;9.20;99.90;;;;;;2024323;29;20318;-71
2024/04/01 04:23:45;;;;;;;9.30;2.88;;;9.20;99.90;;;;;;2029779;29;20217;-71
2024/04/01 04:24:46;;;;;;;5.47;2.50;;;9.10;99.90;;;;;;2026714;29;20243;-71
2024/04/01 04:25:46;;;;;;;6.23;2.47;;;9.10;99.90;;;;;;2026084;29;20648;-71
2024/04/01 04:26:47;;;;;;;6.17;2.27;;;9.20;99.90;;;;;;2030012;29;20233;-71
2024/04/01 04:27:49;;;;;;;5.15;2.85;;;9.20;99.90;;;;;;2030879;29;20720;-71
2024/04/01 04:28:50;;;;;;;5.43;3.07;;;9.20;99.90;;;;;;2027897;29;20233;-71
2024/04/01 04:29:50;;;;;;;4.80;2.50;;;9.10;99.90;;;;;;2030057;29;20249;-71
2024/04/01 04:30:51;;;;;;;10.87;2.93;;;9.20;99.90;;;;;;2031185;29;20956;-71
2024/04/01 04:31:55;;;;;;;5.73;2.60;;;9.30;99.90;;;;;;2029787;29;20220;-71
2024/04/01 04:32:56;;;;;;;4.32;2.70;;;9.30;99.90;;;;;;2031740;29;20230;-71
2024/04/01 04:33:58;;;;;;;6.80;2.63;;;9.40;99.90;;;;;;2021457;29;20245;-71
2024/04/01 04:34:58;;;;;;;6.07;2.30;;;9.40;99.90;;;;;;2015710;29;20244;-71
2024/04/01 04:35:59;;;;;;;6.53;2.97;;;9.40;99.90;;;;;;2014433;29;20245;-71
2024/04/01 04:37:00;;;;;;;5.10;2.40;;;9.40;99.90;;;;;;2015781;29;20234;-71
2024/04/01 04:38:01;;;;;;;6.37;3.00;;;9.30;99.90;;;;;;2014515;29;20238;-71
2024/04/01 04:39:02;;;;;;;9.73;3.47;;;9.40;99.90;;;;;;2019214;29;20237;-70
2024/04/01 04:40:20;;;;;;;4.25;2.45;;;9.30;99.90;;;;;;2024482;29;20193;-71
2024/04/01 04:41:22;;;;;;;7.18;2.50;;;9.30;99.90;;;;;;2020491;29;20221;-71
2024/04/01 04:42:22;;;;;;;6.15;2.35;;;9.40;99.90;;;;;;2028055;29;20235;-71
2024/04/01 04:43:23;;;;;;;6.37;2.27;;;9.40;99.90;;;;;;2028228;29;20307;-71
2024/04/01 04:44:24;;;;;;;6.73;2.70;;;9.30;99.90;;;;;;2026220;29;20237;-70
2024/04/01 04:45:25;;;;;;;6.97;2.37;;;9.30;99.90;;;;;;2029298;29;20653;-71
2024/04/01 04:46:26;;;;;;;5.10;2.47;;;9.30;99.90;;;;;;2027869;29;20235;-70
2024/04/01 04:47:26;;;;;;;4.60;2.70;;;9.30;99.90;;;;;;2028791;29;20256;-71
2024/04/01 04:48:27;;;;;;;8.50;2.30;;;9.40;99.90;;;;;;2021203;29;20370;-71
2024/04/01 04:49:30;;;;;;;6.00;2.80;;;9.40;99.90;;;;;;2020392;29;20225;-70
2024/04/01 04:50:31;;;;;;;7.43;3.00;;;9.40;99.90;;;;;;2021145;29;20237;-71
2024/04/01 04:51:33;;;;;;;5.10;2.57;;;9.40;99.90;;;;;;2030439;29;20232;-70
2024/04/01 04:52:34;;;;;;;7.05;2.90;;;9.40;99.90;;;;;;2021332;29;20229;-71
2024/04/01 04:53:35;;;;;;;4.67;2.37;;;9.40;99.90;;;;;;2020746;29;20236;-71
2024/04/01 04:54:37;;;;;;;7.53;2.60;;;9.40;99.90;;;;;;2026959;29;20241;-71
2024/04/01 04:55:40;;;;;;;5.07;2.80;;;9.30;99.90;;;;;;2025430;29;20264;-72
2024/04/01 04:56:40;;;;;;;8.00;3.55;;;9.30;99.90;;;;;;2029927;29;20279;-71
2024/04/01 04:57:42;;;;;;;6.13;2.70;;;9.30;99.90;;;;;;2027902;29;20240;-72
2024/04/01 04:58:43;;;;;;;8.48;2.75;;;9.30;99.90;;;;;;2025050;29;20238;-71
2024/04/01 04:59:44;;;;;;;7.50;2.70;;;9.30;99.90;;;;;;2021239;29;20229;-72
2024/04/01 05:00:44;;;;;;;3.40;2.70;;;9.30;99.90;;;;;;2027117;29;20589;-71
2024/04/01 05:01:45;;;;;;;11.10;2.93;;;9.40;99.90;;;;;;2036465;29;20247;-71
2024/04/01 05:02:45;;;;;;;4.57;2.77;;;9.20;99.90;;;;;;2026252;29;20236;-71
2024/04/01 05:03:46;;;;;;;7.67;3.37;;;9.20;99.90;;;;;;2026200;29;20622;-70
2024/04/01 05:04:47;;;;;;;7.07;2.33;;;9.30;99.90;;;;;;2022223;29;20265;-71
2024/04/01 05:05:48;;;;;;;2.30;1.67;;;9.30;99.90;;;;;;2022685;29;20634;-71
2024/04/01 05:06:48;;;;;;;5.23;2.63;;;9.10;99.90;;;;;;2019867;29;20233;-71
2024/04/01 05:07:49;;;;;;;3.33;2.17;;;9.10;99.90;;;;;;2022303;29;20308;-71
2024/04/01 05:08:50;;;;;;;5.13;2.90;;;9.10;99.90;;;;;;2020684;29;20738;-70
2024/04/01 05:09:51;;;;;;;3.50;2.20;;;9.10;99.90;;;;;;2013605;29;20253;-70
2024/04/01 05:10:51;;;;;;;5.13;2.10;;;9.10;99.90;;;;;;2021063;29;20229;-71
2024/04/01 05:11:53;;;;;;;5.40;2.73;;;9.10;99.90;;;;;;2022816;29;20238;-70
2024/04/01 05:12:54;;;;;;;6.38;3.47;;;9.10;99.90;;;;;;2021808;29;20244;-70
2024/04/01 05:13:55;;;;;;;5.73;2.67;;;9.20;99.90;;;;;;2021615;29;20606;-71
2024/04/01 05:14:55;;;;;;;2.83;1.80;;;9.10;99.90;;;;;;2021958;29;20234;-71
2024/04/01 05:15:58;;;;;;;10.13;1.90;;;9.00;99.90;;;;;;2020595;29;20244;-71
2024/04/01 05:16:59;;;;;;;5.10;1.50;;;8.90;99.90;;;;;;2018274;29;20229;-70
2024/04/01 05:18:00;;;;;;;2.65;1.55;;;8.70;99.90;;;;;;2022450;29;20240;-71
2024/04/01 05:19:00;;;;;;;4.23;1.77;;;8.70;99.90;;;;;;2025085;29;20260;-70
2024/04/01 05:20:04;;;;;;;2.80;1.70;;;8.70;99.90;;;;;;2016974;29;20313;-70
2024/04/01 05:21:04;;;;;;;2.08;1.23;;;8.70;99.90;;;;;;2030637;29;20697;-70